createdAt,value
2019-05-09T00:00:27.360Z,13.23
2019-05-09T00:01:27.377Z,13.16
2019-05-09T00:02:27.395Z,13.20
2019-05-09T00:03:27.415Z,13.27
2019-05-09T00:04:27.435Z,13.23
2019-05-09T00:05:27.456Z,13.27
2019-05-09T00:06:27.475Z,13.15
2019-05-09T00:07:27.495Z,13.11
2019-05-09T00:08:27.513Z,13.27
2019-05-09T00:09:27.534Z,13.25
2019-05-09T00:10:38.391Z,13.23
2019-05-09T00:11:27.573Z,13.25
2019-05-09T00:12:27.599Z,13.27
2019-05-09T00:13:27.609Z,13.27
2019-05-09T00:14:27.636Z,13.35
2019-05-09T00:15:27.653Z,13.33
2019-05-09T00:16:27.670Z,13.12
2019-05-09T00:17:27.689Z,13.25
2019-05-09T00:18:27.707Z,13.25
2019-05-09T00:19:27.728Z,13.25
2019-05-09T00:20:27.744Z,13.23
2019-05-09T00:21:27.765Z,13.18
2019-05-09T00:22:27.785Z,13.31
2019-05-09T00:23:27.802Z,13.23
2019-05-09T00:24:27.822Z,13.22
2019-05-09T00:25:27.841Z,13.15
2019-05-09T00:26:27.866Z,13.12
2019-05-09T00:27:27.880Z,13.28
2019-05-09T00:28:27.901Z,13.27
2019-05-09T00:29:27.917Z,13.39
2019-05-09T00:30:27.936Z,13.35
2019-05-09T00:31:27.958Z,13.22
2019-05-09T00:32:27.979Z,13.15
2019-05-09T00:33:27.998Z,13.13
2019-05-09T00:34:28.016Z,13.23
2019-05-09T00:35:28.034Z,13.35
2019-05-09T00:36:28.053Z,13.30
2019-05-09T00:37:28.070Z,13.33
2019-05-09T00:38:28.089Z,13.27
2019-05-09T00:39:28.115Z,13.28
2019-05-09T00:40:28.130Z,13.30
2019-05-09T00:41:28.148Z,13.28
2019-05-09T00:42:28.166Z,13.18
2019-05-09T00:43:28.193Z,13.12
2019-05-09T00:44:28.210Z,13.16
2019-05-09T00:45:28.251Z,13.23
2019-05-09T00:46:28.246Z,13.20
2019-05-09T00:47:28.263Z,13.28
2019-05-09T00:48:28.288Z,13.28
2019-05-09T00:49:28.307Z,13.19
2019-05-09T00:50:29.629Z,13.08
2019-05-09T00:51:28.342Z,13.05
2019-05-09T00:52:28.364Z,13.13
2019-05-09T00:53:28.380Z,13.05
2019-05-09T00:54:28.399Z,13.16
2019-05-09T00:55:28.421Z,13.16
2019-05-09T00:56:28.439Z,13.15
2019-05-09T00:57:28.460Z,13.23
2019-05-09T00:58:28.476Z,13.09
2019-05-09T00:59:28.495Z,13.15
2019-05-09T01:00:28.514Z,13.19
2019-05-09T01:01:28.533Z,13.23
2019-05-09T01:02:28.551Z,13.27
2019-05-09T01:03:28.573Z,13.28
2019-05-09T01:04:28.611Z,13.23
2019-05-09T01:05:28.742Z,13.13
2019-05-09T01:06:28.674Z,12.94
2019-05-09T01:07:28.661Z,13.01
2019-05-09T01:08:28.774Z,13.08
2019-05-09T01:09:28.745Z,13.16
2019-05-09T01:10:28.811Z,13.18
2019-05-09T01:11:28.766Z,13.12
2019-05-09T01:12:28.775Z,13.13
2019-05-09T01:13:28.768Z,13.13
2019-05-09T01:14:28.810Z,13.12
2019-05-09T01:15:28.818Z,13.08
2019-05-09T01:16:28.836Z,13.00
2019-05-09T01:17:28.846Z,13.08
2019-05-09T01:18:28.868Z,13.09
2019-05-09T01:19:28.882Z,13.13
2019-05-09T01:20:28.914Z,13.12
2019-05-09T01:21:28.927Z,13.19
2019-05-09T01:22:28.945Z,13.19
2019-05-09T01:23:28.976Z,13.13
2019-05-09T01:24:28.981Z,13.03
2019-05-09T01:25:29.011Z,13.13
2019-05-09T01:26:29.017Z,13.16
2019-05-09T01:27:29.039Z,13.12
2019-05-09T01:28:29.059Z,13.11
2019-05-09T01:29:29.073Z,13.12
2019-05-09T01:30:29.096Z,13.12
2019-05-09T01:31:29.111Z,13.13
2019-05-09T01:32:29.134Z,13.15
2019-05-09T01:33:29.155Z,13.20
2019-05-09T01:34:29.176Z,13.11
2019-05-09T01:35:29.194Z,13.11
2019-05-09T01:36:29.209Z,13.00
2019-05-09T01:37:29.230Z,13.09
2019-05-09T01:38:29.246Z,13.03
2019-05-09T01:39:29.269Z,13.04
2019-05-09T01:40:29.284Z,13.01
2019-05-09T01:41:31.954Z,12.94
2019-05-09T01:42:29.323Z,12.98
2019-05-09T01:43:29.341Z,12.85
2019-05-09T01:44:29.361Z,12.76
2019-05-09T01:45:29.382Z,12.91
2019-05-09T01:46:29.401Z,12.94
2019-05-09T01:47:29.421Z,12.97
2019-05-09T01:48:29.439Z,12.97
2019-05-09T01:49:29.459Z,12.95
2019-05-09T01:50:29.477Z,12.94
2019-05-09T01:51:29.502Z,12.91
2019-05-09T01:52:29.514Z,12.78
2019-05-09T01:53:29.535Z,12.76
2019-05-09T01:54:29.557Z,12.91
2019-05-09T01:55:29.574Z,12.85
2019-05-09T01:56:29.591Z,12.76
2019-05-09T01:57:29.611Z,12.73
2019-05-09T01:58:29.634Z,12.76
2019-05-09T01:59:29.650Z,12.79
2019-05-09T02:00:29.674Z,12.72
2019-05-09T02:01:29.688Z,12.72
2019-05-09T02:02:29.710Z,12.75
2019-05-09T02:03:29.729Z,12.67
2019-05-09T02:04:29.745Z,12.78
2019-05-09T02:05:29.769Z,12.78
2019-05-09T02:06:29.782Z,12.75
2019-05-09T02:07:29.806Z,12.68
2019-05-09T02:08:29.826Z,12.78
2019-05-09T02:09:29.841Z,12.68
2019-05-09T02:10:29.861Z,12.67
2019-05-09T02:11:40.157Z,12.75
2019-05-09T02:12:29.907Z,12.68
2019-05-09T02:13:29.918Z,12.65
2019-05-09T02:14:29.933Z,12.61
2019-05-09T02:15:29.954Z,12.65
2019-05-09T02:16:29.974Z,12.65
2019-05-09T02:17:29.994Z,12.62
2019-05-09T02:18:30.023Z,12.68
2019-05-09T02:19:30.034Z,12.73
2019-05-09T02:20:30.057Z,12.68
2019-05-09T02:21:30.070Z,12.73
2019-05-09T02:22:30.087Z,12.68
2019-05-09T02:23:30.108Z,12.67
2019-05-09T02:24:30.127Z,12.55
2019-05-09T02:25:30.146Z,12.58
2019-05-09T02:26:30.166Z,12.54
2019-05-09T02:27:30.182Z,12.42
2019-05-09T02:28:30.205Z,12.40
2019-05-09T02:29:30.221Z,12.39
2019-05-09T02:30:30.249Z,12.54
2019-05-09T02:31:30.268Z,12.54
2019-05-09T02:32:30.280Z,12.58
2019-05-09T02:33:30.302Z,12.54
2019-05-09T02:34:30.322Z,12.57
2019-05-09T02:35:36.544Z,12.47
2019-05-09T02:36:30.357Z,12.47
2019-05-09T02:37:30.381Z,12.45
2019-05-09T02:38:30.399Z,12.45
2019-05-09T02:39:30.420Z,12.31
2019-05-09T02:40:30.432Z,12.35
2019-05-09T02:41:30.454Z,12.35
2019-05-09T02:42:30.471Z,12.35
2019-05-09T02:43:30.490Z,12.31
2019-05-09T02:44:30.512Z,12.25
2019-05-09T02:45:30.529Z,12.21
2019-05-09T02:46:30.548Z,12.15
2019-05-09T02:47:30.567Z,12.25
2019-05-09T02:48:30.586Z,12.20
2019-05-09T02:49:30.612Z,12.10
2019-05-09T02:50:30.622Z,12.18
2019-05-09T02:51:30.647Z,12.06
2019-05-09T02:52:30.660Z,12.04
2019-05-09T02:53:30.682Z,12.07
2019-05-09T02:54:30.699Z,12.09
2019-05-09T02:55:30.716Z,12.07
2019-05-09T02:56:30.738Z,12.07
2019-05-09T02:57:30.769Z,12.15
2019-05-09T02:58:30.792Z,12.15
2019-05-09T02:59:30.794Z,12.03
2019-05-09T03:00:30.813Z,12.04
2019-05-09T03:01:30.828Z,12.13
2019-05-09T03:02:30.868Z,12.20
2019-05-09T03:03:30.868Z,12.12
2019-05-09T03:04:30.893Z,12.07
2019-05-09T03:05:30.913Z,12.20
2019-05-09T03:06:30.929Z,12.04
2019-05-09T03:07:30.947Z,12.10
2019-05-09T03:08:30.966Z,12.10
2019-05-09T03:09:30.981Z,12.09
2019-05-09T03:10:31.000Z,11.95
2019-05-09T03:11:31.030Z,12.13
2019-05-09T03:12:35.544Z,12.17
2019-05-09T03:13:31.065Z,12.27
2019-05-09T03:14:31.080Z,12.13
2019-05-09T03:15:31.096Z,12.13
2019-05-09T03:16:31.114Z,12.18
2019-05-09T03:17:31.134Z,12.04
2019-05-09T03:18:31.150Z,12.12
2019-05-09T03:19:31.178Z,12.15
2019-05-09T03:20:31.189Z,11.99
2019-05-09T03:21:31.207Z,12.03
2019-05-09T03:22:31.226Z,12.02
2019-05-09T03:23:31.246Z,11.88
2019-05-09T03:24:31.266Z,11.90
2019-05-09T03:25:31.281Z,12.03
2019-05-09T03:26:31.304Z,11.94
2019-05-09T03:27:31.320Z,12.12
2019-05-09T03:28:31.337Z,12.02
2019-05-09T03:29:31.365Z,12.06
2019-05-09T03:30:31.376Z,12.17
2019-05-09T03:31:31.398Z,12.10
2019-05-09T03:32:31.427Z,12.17
2019-05-09T03:33:35.508Z,12.09
2019-05-09T03:34:31.469Z,12.03
2019-05-09T03:35:31.471Z,12.00
2019-05-09T03:36:31.486Z,11.95
2019-05-09T03:37:31.505Z,12.02
2019-05-09T03:38:31.525Z,12.10
2019-05-09T03:39:31.544Z,12.06
2019-05-09T03:40:31.564Z,12.00
2019-05-09T03:41:31.589Z,11.91
2019-05-09T03:42:43.102Z,11.81
2019-05-09T03:43:31.620Z,11.83
2019-05-09T03:44:31.638Z,11.86
2019-05-09T03:45:31.659Z,11.87
2019-05-09T03:46:31.675Z,11.68
2019-05-09T03:47:31.694Z,11.69
2019-05-09T03:48:31.716Z,11.59
2019-05-09T03:49:31.735Z,11.63
2019-05-09T03:50:31.762Z,11.70
2019-05-09T03:51:31.774Z,11.69
2019-05-09T03:52:31.789Z,11.73
2019-05-09T03:53:31.811Z,11.72
2019-05-09T03:54:31.825Z,11.80
2019-05-09T03:55:31.845Z,11.84
2019-05-09T03:56:31.869Z,11.86
2019-05-09T03:57:31.892Z,11.72
2019-05-09T03:58:31.904Z,11.66
2019-05-09T03:59:31.924Z,11.57
2019-05-09T04:00:31.938Z,11.60
2019-05-09T04:01:31.957Z,11.60
2019-05-09T04:02:31.977Z,11.70
2019-05-09T04:03:31.994Z,11.66
2019-05-09T04:04:32.014Z,11.69
2019-05-09T04:05:32.031Z,11.72
2019-05-09T04:06:32.056Z,11.80
2019-05-09T04:07:32.071Z,11.86
2019-05-09T04:08:32.091Z,11.80
2019-05-09T04:09:32.115Z,11.80
2019-05-09T04:10:32.124Z,11.70
2019-05-09T04:11:32.143Z,11.69
2019-05-09T04:12:32.162Z,11.78
2019-05-09T04:13:32.186Z,11.80
2019-05-09T04:14:32.197Z,11.84
2019-05-09T04:15:32.221Z,11.95
2019-05-09T04:16:32.250Z,11.86
2019-05-09T04:17:32.253Z,11.88
2019-05-09T04:18:32.272Z,11.81
2019-05-09T04:19:32.292Z,11.77
2019-05-09T04:20:32.312Z,11.95
2019-05-09T04:21:32.330Z,11.99
2019-05-09T04:22:32.351Z,12.02
2019-05-09T04:23:32.367Z,11.91
2019-05-09T04:24:32.387Z,11.97
2019-05-09T04:25:32.409Z,12.03
2019-05-09T04:26:32.420Z,11.94
2019-05-09T04:27:32.442Z,12.07
2019-05-09T04:28:32.460Z,12.12
2019-05-09T04:29:32.484Z,12.20
2019-05-09T04:30:32.503Z,12.17
2019-05-09T04:31:32.517Z,12.13
2019-05-09T04:32:32.539Z,12.20
2019-05-09T04:33:32.555Z,12.12
2019-05-09T04:34:32.574Z,12.10
2019-05-09T04:35:32.596Z,12.00
2019-05-09T04:36:32.614Z,12.10
2019-05-09T04:37:32.633Z,12.07
2019-05-09T04:38:32.654Z,12.09
2019-05-09T04:39:32.668Z,12.09
2019-05-09T04:40:37.714Z,12.20
2019-05-09T04:41:32.705Z,12.21
2019-05-09T04:42:35.099Z,12.02
2019-05-09T04:43:36.797Z,12.06
2019-05-09T04:44:32.763Z,11.94
2019-05-09T04:45:33.153Z,11.87
2019-05-09T04:46:32.845Z,11.90
2019-05-09T04:47:33.801Z,11.97
2019-05-09T04:48:32.840Z,12.02
2019-05-09T04:49:39.644Z,11.95
2019-05-09T04:50:32.876Z,11.69
2019-05-09T04:51:32.894Z,11.68
2019-05-09T04:52:32.910Z,11.84
2019-05-09T04:53:33.170Z,11.68
2019-05-09T04:54:32.957Z,11.83
2019-05-09T04:55:32.979Z,11.72
2019-05-09T04:56:33.002Z,11.68
2019-05-09T04:57:33.014Z,11.72
2019-05-09T04:58:33.025Z,11.86
2019-05-09T04:59:33.043Z,11.87
2019-05-09T05:00:33.062Z,11.66
2019-05-09T05:01:33.134Z,11.68
2019-05-09T05:02:33.109Z,11.69
2019-05-09T05:03:33.132Z,11.62
2019-05-09T05:04:33.140Z,11.52
2019-05-09T05:05:33.175Z,11.51
2019-05-09T05:06:33.184Z,11.54
2019-05-09T05:07:33.191Z,11.63
2019-05-09T05:08:33.209Z,11.77
2019-05-09T05:09:33.231Z,11.68
2019-05-09T05:10:33.251Z,11.66
2019-05-09T05:11:33.276Z,11.59
2019-05-09T05:12:33.329Z,11.55
2019-05-09T05:13:33.310Z,11.63
2019-05-09T05:14:33.337Z,11.48
2019-05-09T05:15:33.354Z,11.50
2019-05-09T05:16:33.361Z,11.68
2019-05-09T05:17:33.381Z,11.72
2019-05-09T05:18:33.401Z,11.81
2019-05-09T05:19:35.549Z,11.77
2019-05-09T05:20:33.443Z,11.80
2019-05-09T05:21:33.465Z,11.84
2019-05-09T05:22:33.484Z,11.88
2019-05-09T05:23:33.611Z,11.90
2019-05-09T05:24:33.524Z,12.10
2019-05-09T05:25:33.548Z,11.99
2019-05-09T05:26:33.548Z,12.09
2019-05-09T05:27:33.568Z,12.10
2019-05-09T05:28:33.589Z,12.09
2019-05-09T05:29:33.603Z,12.15
2019-05-09T05:30:33.635Z,12.21
2019-05-09T05:31:33.655Z,12.36
2019-05-09T05:32:33.777Z,12.54
2019-05-09T05:33:33.690Z,12.55
2019-05-09T05:34:33.699Z,12.62
2019-05-09T05:35:33.720Z,12.62
2019-05-09T05:36:33.750Z,12.79
2019-05-09T05:37:33.754Z,12.90
2019-05-09T05:38:33.772Z,12.87
2019-05-09T05:39:33.794Z,12.83
2019-05-09T05:40:34.056Z,13.11
2019-05-09T05:41:33.829Z,12.87
2019-05-09T05:42:33.852Z,12.80
2019-05-09T05:43:43.388Z,12.95
2019-05-09T05:44:33.888Z,13.00
2019-05-09T05:45:33.907Z,13.01
2019-05-09T05:46:33.929Z,12.90
2019-05-09T05:47:33.946Z,13.01
2019-05-09T05:48:33.974Z,13.08
2019-05-09T05:49:33.985Z,13.20
2019-05-09T05:50:34.006Z,13.57
2019-05-09T05:51:34.023Z,13.72
2019-05-09T05:52:34.042Z,14.03
2019-05-09T05:53:34.062Z,14.26
2019-05-09T05:54:34.086Z,14.05
2019-05-09T05:55:34.109Z,14.17
2019-05-09T05:56:34.128Z,14.59
2019-05-09T05:57:34.142Z,14.78
2019-05-09T05:58:34.163Z,15.04
2019-05-09T05:59:37.299Z,15.57
2019-05-09T06:00:34.207Z,15.92
2019-05-09T06:01:34.236Z,15.94
2019-05-09T06:02:34.248Z,16.72
2019-05-09T06:03:34.268Z,17.57
2019-05-09T06:04:34.285Z,18.35
2019-05-09T06:05:34.307Z,18.89
2019-05-09T06:06:34.327Z,19.31
2019-05-09T06:07:34.349Z,19.91
2019-05-09T06:08:34.378Z,20.69
2019-05-09T06:09:34.399Z,20.75
2019-05-09T06:10:34.423Z,20.70
2019-05-09T06:11:34.441Z,21.89
2019-05-09T06:12:34.599Z,21.66
2019-05-09T06:13:34.672Z,20.95
2019-05-09T06:14:34.583Z,21.05
2019-05-09T06:15:34.564Z,20.99
2019-05-09T06:16:34.628Z,21.39
2019-05-09T06:17:34.610Z,21.14
2019-05-09T06:18:34.625Z,21.51
2019-05-09T06:19:34.717Z,22.06
2019-05-09T06:20:34.679Z,21.32
2019-05-09T06:21:34.717Z,21.45
2019-05-09T06:22:34.725Z,21.24
2019-05-09T06:23:34.752Z,21.48
2019-05-09T06:24:34.769Z,21.25
2019-05-09T06:25:34.791Z,21.40
2019-05-09T06:26:34.818Z,21.69
2019-05-09T06:27:34.856Z,22.18
2019-05-09T06:28:34.869Z,21.52
2019-05-09T06:29:34.890Z,21.07
2019-05-09T06:30:40.849Z,21.36
2019-05-09T06:31:34.930Z,21.22
2019-05-09T06:32:34.955Z,21.18
2019-05-09T06:33:34.984Z,21.54
2019-05-09T06:34:34.998Z,22.07
2019-05-09T06:35:37.751Z,21.82
2019-05-09T06:36:38.605Z,22.10
2019-05-09T06:37:35.071Z,21.82
2019-05-09T06:38:37.587Z,20.72
2019-05-09T06:39:35.113Z,19.48
2019-05-09T06:40:35.149Z,19.02
2019-05-09T06:41:37.795Z,19.41
2019-05-09T06:42:37.852Z,19.02
2019-05-09T06:43:35.211Z,19.18
2019-05-09T06:44:37.325Z,18.92
2019-05-09T06:45:39.105Z,18.55
2019-05-09T06:46:37.703Z,18.11
2019-05-09T06:47:35.299Z,17.90
2019-05-09T06:48:37.626Z,17.54
2019-05-09T06:49:37.531Z,17.38
2019-05-09T06:50:35.355Z,17.12
2019-05-09T06:51:35.403Z,16.81
2019-05-09T06:52:37.502Z,16.69
2019-05-09T06:53:35.424Z,16.42
2019-05-09T06:54:35.442Z,16.60
2019-05-09T06:55:35.464Z,16.49
2019-05-09T06:56:35.483Z,16.51
2019-05-09T06:57:38.989Z,16.99
2019-05-09T06:58:35.526Z,18.20
2019-05-09T06:59:35.546Z,18.99
2019-05-09T07:00:37.758Z,19.58
2019-05-09T07:01:37.636Z,19.66
2019-05-09T07:02:35.610Z,19.81
2019-05-09T07:03:37.506Z,20.25
2019-05-09T07:04:37.939Z,20.72
2019-05-09T07:05:35.667Z,20.90
2019-05-09T07:06:38.023Z,21.42
2019-05-09T07:07:37.392Z,20.72
2019-05-09T07:08:37.938Z,20.74
2019-05-09T07:09:35.759Z,21.06
2019-05-09T07:10:37.693Z,21.00
2019-05-09T07:11:37.976Z,20.77
2019-05-09T07:12:37.828Z,21.25
2019-05-09T07:13:38.071Z,21.43
2019-05-09T07:14:39.084Z,21.75
2019-05-09T07:15:37.630Z,21.62
2019-05-09T07:16:37.619Z,21.85
2019-05-09T07:17:38.549Z,22.14
2019-05-09T07:18:38.151Z,22.32
2019-05-09T07:19:38.329Z,22.22
2019-05-09T07:20:37.885Z,21.99
2019-05-09T07:21:37.577Z,22.32
2019-05-09T07:22:38.997Z,21.83
2019-05-09T07:23:37.301Z,21.18
2019-05-09T07:24:37.781Z,20.50
2019-05-09T07:25:37.789Z,19.45
2019-05-09T07:26:37.373Z,19.30
2019-05-09T07:27:38.828Z,18.96
2019-05-09T07:28:37.669Z,18.05
2019-05-09T07:29:37.605Z,18.08
2019-05-09T07:30:37.577Z,18.04
2019-05-09T07:31:37.875Z,18.40
2019-05-09T07:32:38.207Z,18.89
2019-05-09T07:33:38.338Z,19.48
2019-05-09T07:34:38.239Z,19.88
2019-05-09T07:35:38.241Z,19.77
2019-05-09T07:36:38.368Z,19.40
2019-05-09T07:37:37.964Z,19.48
2019-05-09T07:38:38.447Z,19.48
2019-05-09T07:39:37.988Z,19.48
2019-05-09T07:40:38.463Z,18.70
2019-05-09T07:41:38.436Z,17.86
2019-05-09T07:42:38.882Z,18.41
2019-05-09T07:43:38.443Z,18.65
2019-05-09T07:44:46.250Z,19.08
2019-05-09T07:45:38.401Z,19.24
2019-05-09T07:46:38.436Z,19.49
2019-05-09T07:47:38.549Z,19.79
2019-05-09T07:48:38.117Z,20.11
2019-05-09T07:49:37.750Z,19.89
2019-05-09T07:50:38.861Z,19.84
2019-05-09T07:51:37.327Z,19.99
2019-05-09T07:52:38.810Z,20.14
2019-05-09T07:53:37.974Z,20.40
2019-05-09T07:54:37.750Z,19.56
2019-05-09T07:55:37.856Z,19.18
2019-05-09T07:56:37.836Z,19.22
2019-05-09T07:57:44.902Z,18.71
2019-05-09T07:58:37.737Z,18.81
2019-05-09T07:59:38.789Z,18.84
2019-05-09T08:00:38.544Z,18.77
2019-05-09T08:01:38.430Z,18.71
2019-05-09T08:02:38.699Z,18.50
2019-05-09T08:03:38.452Z,18.45
2019-05-09T08:04:38.576Z,18.25
2019-05-09T08:05:38.588Z,18.25
2019-05-09T08:06:37.964Z,18.11
2019-05-09T08:07:38.091Z,17.56
2019-05-09T08:08:38.451Z,17.72
2019-05-09T08:09:38.709Z,17.57
2019-05-09T08:10:38.559Z,17.15
2019-05-09T08:11:37.715Z,17.39
2019-05-09T08:12:38.885Z,17.44
2019-05-09T08:13:39.234Z,18.07
2019-05-09T08:14:37.869Z,18.25
2019-05-09T08:15:38.395Z,18.05
2019-05-09T08:16:37.954Z,18.00
2019-05-09T08:17:38.189Z,17.98
2019-05-09T08:18:37.603Z,17.56
2019-05-09T08:19:38.042Z,17.42
2019-05-09T08:20:40.438Z,17.78
2019-05-09T08:21:38.391Z,17.78
2019-05-09T08:22:41.249Z,17.85
2019-05-09T08:23:37.976Z,18.04
2019-05-09T08:24:38.009Z,18.31
2019-05-09T08:25:38.244Z,18.74
2019-05-09T08:26:39.589Z,18.90
2019-05-09T08:27:37.835Z,19.37
2019-05-09T08:28:38.957Z,19.37
2019-05-09T08:29:38.671Z,19.59
2019-05-09T08:30:40.238Z,19.66
2019-05-09T08:31:40.070Z,19.09
2019-05-09T08:32:37.942Z,18.99
2019-05-09T08:33:38.258Z,18.86
2019-05-09T08:34:37.925Z,18.99
2019-05-09T08:35:38.281Z,18.81
2019-05-09T08:36:38.467Z,18.74
2019-05-09T08:37:39.077Z,19.08
2019-05-09T08:38:38.931Z,19.44
2019-05-09T08:39:38.395Z,19.47
2019-05-09T08:40:38.396Z,19.66
2019-05-09T08:41:38.431Z,19.71
2019-05-09T08:42:37.981Z,19.71
2019-05-09T08:43:37.769Z,19.64
2019-05-09T08:44:39.022Z,19.48
2019-05-09T08:45:38.409Z,19.16
2019-05-09T08:46:37.890Z,18.52
2019-05-09T08:47:38.324Z,18.80
2019-05-09T08:48:38.016Z,18.92
2019-05-09T08:49:37.852Z,18.92
2019-05-09T08:50:38.899Z,18.81
2019-05-09T08:51:50.769Z,18.59
2019-05-09T08:52:37.915Z,18.04
2019-05-09T08:53:38.171Z,18.11
2019-05-09T08:54:38.157Z,17.87
2019-05-09T08:55:38.422Z,17.89
2019-05-09T08:56:38.797Z,17.95
2019-05-09T08:57:38.007Z,18.01
2019-05-09T08:58:38.372Z,17.94
2019-05-09T08:59:38.368Z,18.01
2019-05-09T09:00:39.091Z,17.98
2019-05-09T09:02:04.483Z,18.20
2019-05-09T09:02:38.107Z,18.15
2019-05-09T09:03:38.128Z,18.03
2019-05-09T09:04:38.561Z,18.22
2019-05-09T09:05:38.434Z,18.29
2019-05-09T09:06:38.197Z,18.19
2019-05-09T09:07:38.208Z,18.47
2019-05-09T09:08:38.227Z,18.18
2019-05-09T09:09:38.247Z,18.08
2019-05-09T09:10:38.750Z,18.29
2019-05-09T09:11:38.662Z,18.31
2019-05-09T09:12:38.591Z,18.23
2019-05-09T09:13:38.321Z,18.38
2019-05-09T09:14:38.634Z,18.23
2019-05-09T09:16:02.409Z,18.03
2019-05-09T09:16:41.433Z,18.35
2019-05-09T09:17:38.726Z,18.34
2019-05-09T09:18:38.872Z,18.52
2019-05-09T09:19:38.791Z,18.68
2019-05-09T09:20:38.461Z,18.45
2019-05-09T09:21:38.972Z,18.77
2019-05-09T09:22:38.499Z,18.77
2019-05-09T09:23:44.145Z,18.84
2019-05-09T09:24:38.538Z,18.89
2019-05-09T09:25:39.062Z,18.86
2019-05-09T09:26:38.583Z,18.78
2019-05-09T09:27:38.603Z,18.63
2019-05-09T09:28:38.620Z,18.47
2019-05-09T09:29:38.637Z,18.49
2019-05-09T09:30:39.073Z,18.03
2019-05-09T09:31:38.681Z,18.08
2019-05-09T09:32:38.965Z,18.05
2019-05-09T09:33:38.718Z,18.38
2019-05-09T09:34:38.745Z,18.49
2019-05-09T09:35:38.756Z,18.35
2019-05-09T09:36:39.201Z,18.47
2019-05-09T09:37:48.546Z,18.73
2019-05-09T09:38:38.812Z,18.83
2019-05-09T09:39:44.521Z,19.29
2019-05-09T09:40:38.854Z,19.52
2019-05-09T09:41:39.004Z,19.36
2019-05-09T09:42:39.629Z,19.27
2019-05-09T09:43:38.921Z,19.27
2019-05-09T09:44:39.620Z,19.39
2019-05-09T09:45:38.949Z,19.18
2019-05-09T09:46:38.973Z,19.24
2019-05-09T09:47:40.153Z,19.18
2019-05-09T09:48:39.117Z,19.45
2019-05-09T09:49:39.028Z,19.51
2019-05-09T09:50:39.049Z,19.44
2019-05-09T09:51:39.072Z,19.59
2019-05-09T09:52:39.091Z,19.69
2019-05-09T09:53:39.111Z,19.49
2019-05-09T09:54:39.133Z,18.75
2019-05-09T09:55:39.147Z,18.71
2019-05-09T09:56:39.184Z,18.89
2019-05-09T09:57:39.188Z,18.98
2019-05-09T09:58:39.214Z,19.12
2019-05-09T09:59:41.052Z,19.09
2019-05-09T10:00:39.248Z,18.53
2019-05-09T10:01:39.269Z,18.68
2019-05-09T10:02:39.290Z,19.27
2019-05-09T10:03:39.316Z,19.27
2019-05-09T10:04:39.327Z,19.39
2019-05-09T10:05:39.348Z,19.48
2019-05-09T10:06:39.368Z,19.37
2019-05-09T10:07:39.392Z,19.96
2019-05-09T10:08:40.043Z,20.40
2019-05-09T10:09:39.429Z,20.13
2019-05-09T10:10:39.447Z,20.03
2019-05-09T10:11:39.469Z,19.92
2019-05-09T10:12:44.339Z,19.15
2019-05-09T10:13:39.508Z,18.90
2019-05-09T10:14:39.532Z,18.75
2019-05-09T10:15:39.557Z,18.98
2019-05-09T10:16:39.578Z,18.90
2019-05-09T10:17:39.588Z,19.22
2019-05-09T10:18:39.613Z,19.59
2019-05-09T10:19:39.630Z,19.48
2019-05-09T10:20:39.655Z,19.58
2019-05-09T10:21:39.669Z,19.48
2019-05-09T10:22:46.296Z,19.51
2019-05-09T10:23:39.713Z,19.85
2019-05-09T10:24:39.733Z,20.03
2019-05-09T10:25:39.752Z,20.02
2019-05-09T10:26:39.770Z,19.88
2019-05-09T10:27:39.795Z,19.85
2019-05-09T10:28:39.810Z,19.55
2019-05-09T10:29:39.831Z,19.66
2019-05-09T10:30:39.850Z,19.69
2019-05-09T10:31:39.875Z,19.33
2019-05-09T10:32:39.892Z,19.36
2019-05-09T10:33:39.913Z,19.69
2019-05-09T10:34:39.933Z,19.45
2019-05-09T10:35:39.950Z,19.47
2019-05-09T10:36:39.973Z,19.52
2019-05-09T10:37:39.994Z,19.19
2019-05-09T10:38:40.014Z,19.14
2019-05-09T10:39:40.034Z,18.75
2019-05-09T10:40:40.531Z,18.84
2019-05-09T10:41:40.070Z,18.58
2019-05-09T10:42:40.092Z,19.16
2019-05-09T10:43:40.117Z,19.36
2019-05-09T10:44:40.130Z,19.47
2019-05-09T10:45:41.074Z,19.73
2019-05-09T10:46:52.568Z,19.39
2019-05-09T10:47:40.191Z,18.88
2019-05-09T10:48:40.214Z,19.14
2019-05-09T10:49:40.232Z,19.15
2019-05-09T10:50:44.272Z,19.11
2019-05-09T10:51:40.271Z,19.22
2019-05-09T10:52:40.290Z,19.48
2019-05-09T10:53:40.314Z,19.14
2019-05-09T10:54:40.451Z,19.30
2019-05-09T10:55:40.542Z,19.67
2019-05-09T10:56:40.523Z,19.76
2019-05-09T10:57:42.445Z,19.96
2019-05-09T10:58:40.421Z,20.18
2019-05-09T10:59:40.532Z,20.10
2019-05-09T11:00:40.461Z,20.58
2019-05-09T11:01:40.485Z,20.85
2019-05-09T11:02:40.491Z,20.70
2019-05-09T11:03:40.547Z,20.66
2019-05-09T11:04:44.280Z,20.43
2019-05-09T11:05:40.554Z,20.32
2019-05-09T11:06:40.581Z,19.88
2019-05-09T11:07:40.601Z,19.62
2019-05-09T11:08:40.624Z,19.64
2019-05-09T11:09:40.638Z,19.33
2019-05-09T11:10:40.649Z,19.48
2019-05-09T11:11:40.860Z,20.04
2019-05-09T11:12:40.694Z,20.41
2019-05-09T11:13:40.720Z,20.70
2019-05-09T11:14:40.735Z,20.97
2019-05-09T11:15:40.837Z,20.75
2019-05-09T11:16:46.149Z,20.50
2019-05-09T11:17:40.791Z,20.50
2019-05-09T11:18:40.811Z,20.60
2019-05-09T11:19:40.834Z,20.87
2019-05-09T11:20:40.857Z,21.18
2019-05-09T11:21:40.875Z,21.37
2019-05-09T11:22:40.903Z,21.09
2019-05-09T11:23:40.913Z,21.27
2019-05-09T11:24:46.226Z,21.02
2019-05-09T11:25:40.952Z,20.87
2019-05-09T11:26:40.986Z,21.02
2019-05-09T11:27:40.995Z,20.36
2019-05-09T11:28:41.014Z,20.18
2019-05-09T11:29:41.037Z,20.60
2019-05-09T11:30:41.059Z,20.43
2019-05-09T11:31:41.079Z,20.41
2019-05-09T11:32:41.109Z,20.60
2019-05-09T11:33:41.118Z,20.88
2019-05-09T11:34:41.140Z,20.59
2019-05-09T11:35:41.184Z,20.36
2019-05-09T11:36:41.181Z,20.04
2019-05-09T11:37:41.200Z,20.26
2019-05-09T11:38:43.965Z,20.25
2019-05-09T11:39:42.268Z,20.16
2019-05-09T11:40:41.259Z,20.14
2019-05-09T11:41:41.281Z,20.02
2019-05-09T11:42:41.298Z,20.09
2019-05-09T11:43:41.324Z,19.76
2019-05-09T11:44:41.346Z,19.49
2019-05-09T11:45:41.363Z,19.07
2019-05-09T11:46:41.384Z,18.58
2019-05-09T11:47:46.228Z,18.81
2019-05-09T11:48:41.422Z,18.98
2019-05-09T11:49:41.449Z,19.27
2019-05-09T11:50:41.463Z,19.29
2019-05-09T11:51:41.484Z,19.51
2019-05-09T11:52:41.519Z,19.29
2019-05-09T11:53:41.549Z,19.39
2019-05-09T11:54:41.540Z,19.63
2019-05-09T11:55:43.365Z,19.37
2019-05-09T11:56:41.580Z,19.48
2019-05-09T11:57:41.625Z,19.56
2019-05-09T11:58:41.626Z,19.64
2019-05-09T11:59:41.640Z,19.74
2019-05-09T12:00:41.664Z,19.70
2019-05-09T12:01:41.680Z,19.89
2019-05-09T12:02:41.700Z,19.85
2019-05-09T12:03:41.721Z,19.96
2019-05-09T12:04:41.738Z,20.11
2019-05-09T12:05:41.760Z,20.22
2019-05-09T12:06:41.779Z,20.18
2019-05-09T12:07:41.799Z,20.02
2019-05-09T12:08:41.823Z,19.82
2019-05-09T12:09:41.839Z,19.69
2019-05-09T12:10:41.862Z,19.64
2019-05-09T12:11:44.551Z,19.99
2019-05-09T12:12:41.909Z,20.22
2019-05-09T12:13:41.917Z,19.99
2019-05-09T12:14:41.940Z,19.56
2019-05-09T12:15:41.961Z,19.58
2019-05-09T12:16:41.985Z,19.49
2019-05-09T12:17:56.521Z,19.91
2019-05-09T12:18:42.024Z,19.85
2019-05-09T12:19:42.047Z,19.95
2019-05-09T12:20:42.059Z,20.04
2019-05-09T12:21:47.633Z,19.91
2019-05-09T12:22:42.105Z,20.00
2019-05-09T12:23:42.244Z,20.26
2019-05-09T12:24:42.148Z,20.25
2019-05-09T12:25:42.166Z,20.44
2019-05-09T12:26:42.180Z,20.16
2019-05-09T12:27:42.202Z,19.91
2019-05-09T12:28:42.217Z,19.74
2019-05-09T12:29:42.239Z,19.85
2019-05-09T12:30:42.257Z,19.86
2019-05-09T12:31:42.280Z,19.70
2019-05-09T12:32:42.301Z,19.95
2019-05-09T12:33:42.315Z,19.55
2019-05-09T12:34:42.335Z,19.45
2019-05-09T12:35:42.357Z,19.51
2019-05-09T12:36:42.375Z,19.66
2019-05-09T12:37:42.400Z,19.24
2019-05-09T12:38:46.075Z,19.12
2019-05-09T12:39:42.443Z,19.21
2019-05-09T12:40:42.455Z,19.29
2019-05-09T12:41:42.478Z,19.26
2019-05-09T12:42:42.492Z,19.36
2019-05-09T12:43:42.513Z,19.30
2019-05-09T12:44:42.534Z,19.24
2019-05-09T12:45:42.556Z,19.16
2019-05-09T12:46:42.580Z,19.16
2019-05-09T12:47:42.598Z,19.08
2019-05-09T12:48:42.614Z,19.18
2019-05-09T12:49:42.634Z,19.39
2019-05-09T12:50:42.650Z,19.22
2019-05-09T12:51:42.670Z,19.27
2019-05-09T12:52:42.699Z,19.33